Terminal Aerodrome Forecast
Issued by NWS

Home | Current Version | Previous Version | Text Only | Print | Product List | Glossary On
Versions: 1 2 3 4 5 6 7 8 9 10 11 12 13 14 15 16 17 18
000
FTUS42 KMHX 291325 AAB
TAFPGV
TAF AMD
KPGV 291325Z 2913/3012 VRB04KT P6SM -SHRA VCTS BKN025CB
     FM291430 14007KT P6SM VCTS SCT030CB BKN090
     FM291700 17007KT P6SM VCTS SCT030CB BKN050
     FM292100 17005KT P6SM BKN040
     FM300200 VRB04KT P6SM SCT250
     FM300600 VRB03KT 3SM BR SCT250
      AMD LTD TO CLD VIS AND WIND=

USA.gov is the U.S. government's official web portal to all federal, state and local government web resources and services.